• Join FlightAware (Why Join?)
  • Login
  • US Flag 
04:22AM EDT


 

Airport Tracker/Info


-or-


 

Live Flight TrackerFlight Track Log ✈ EJA396 ✈ 11-Jun-2013 ✈ KOXR - KAPC

Flight Track Log - Related Links

Times and Time Zones

All times are in EDT time to prevent confusion due to time zone crossing. See the EJA396 flight status page for this flight to view local times or setup timezone preferences in your user account.

Time Position Orientation Groundspeed Altitude Reporting Facility
EDT Latitude Longitude Course Direction KTS MPH feet Rate Location/Type
01:49PM 34.1983 -119.2711 265° West 241 277 30,000  Level Los Angeles Center
01:50PM 34.1975 -119.3258 269° West 276 318 5,900 -22,260 Descending Los Angeles Center
01:50PM 34.1967 -119.3644 269° West 258 297 7,000 1,320 Climbing Los Angeles Center
01:52PM 34.1867 -119.4478 262° West 279 321 7,900 480 Climbing Los Angeles Center
01:53PM 34.1939 -119.5375 276° West 256 295 8,000 1,200 Climbing Los Angeles Center
01:54PM 34.1950 -119.6503 271° West 277 319 10,400 2,640 Climbing Los Angeles Center
01:55PM 34.2194 -119.7508 286° West 310 357 13,500 2,940 Climbing Los Angeles Center
01:56PM 34.2989 -119.8225 323° Northwest 354 407 16,600 2,880 Climbing Los Angeles Center
01:57PM 34.3928 -119.8811 333° Northwest 375 432 19,600 2,640 Climbing Los Angeles Center
01:58PM 34.4897 -119.9394 334° Northwest 385 443 22,100 2,160 Climbing Los Angeles Center
01:59PM 34.5928 -119.9992 334° Northwest 402 463 24,100 2,100 Climbing Los Angeles Center
02:00PM 34.7206 -120.0842 331° Northwest 437 503 26,500 1,860 Climbing Los Angeles Center
02:01PM 34.8231 -120.1539 331° Northwest 446 513 28,400 1,500 Climbing Los Angeles Center
02:02PM 34.9497 -120.2406 331° Northwest 443 510 30,000 720 Climbing Los Angeles Center
02:03PM 35.0636 -120.3200 330° Northwest 471 542 30,000  Level Los Angeles Center
02:04PM 35.2003 -120.4142 331° Northwest 476 548 30,000  Level Los Angeles Center
02:05PM 35.3372 -120.5089 331° Northwest 475 547 30,000  Level Los Angeles Center
02:06PM 35.4489 -120.5869 330° Northwest 466 536 30,000  Level Los Angeles Center
02:07PM 35.5639 -120.6667 331° Northwest 473 544 30,000  Level Los Angeles Center
02:08PM 35.6742 -120.7436 330° Northwest 471 542 30,000 -600 Level Oakland Center
02:09PM 35.7869 -120.8228 330° Northwest 463 533 28,900 -1,320 Descending Oakland Center
02:10PM 35.8928 -120.8978 330° Northwest 433 498 27,400 -1,440 Descending Oakland Center
02:11PM 36.0025 -120.9753 330° Northwest 450 518 26,000 -720 Descending Oakland Center
02:12PM 36.1122 -121.0511 331° Northwest 450 518 26,000  Level Oakland Center
02:13PM 36.2219 -121.1281 331° Northwest 450 518 26,000  Level Oakland Center
02:14PM 36.3306 -121.2075 329° Northwest 452 520 26,000  Level Oakland Center
02:15PM 36.4400 -121.2847 330° Northwest 451 519 26,000  Level Oakland Center
02:16PM 36.5700 -121.3808 329° Northwest 451 519 26,000  Level Oakland Center
02:17PM 36.6808 -121.4592 330° Northwest 456 525 26,000 -600 Level Oakland Center
02:19PM 36.7864 -121.5375 329° Northwest 439 505 24,800 -1,020 Descending Oakland Center
02:20PM 36.8878 -121.6053 332° Northwest 435 501 24,000 -420 Descending Oakland Center
02:21PM 36.9947 -121.6728 333° Northwest 429 494 24,000  Level Oakland Center
02:22PM 37.1122 -121.7225 341° North 434 499 24,000 -180 Level Oakland Center
02:23PM 37.2233 -121.7792 338° Northwest 429 494 23,700 -1,320 Descending Oakland Center
02:24PM 37.3358 -121.8772 325° Northwest 410 472 21,300 -2,220 Descending Oakland Center
02:24PM 37.3833 -121.9333 317° Northwest 387 445 20,100 -2,280 Descending Northern Cal TRACON
02:25PM 37.4833 -122.0000 332° Northwest 385 443 17,700 -1,920 Descending Northern Cal TRACON
02:27PM 37.6500 -122.1500 325° Northwest 341 392 14,500 -1,320 Descending Northern Cal TRACON
02:30PM 37.8253 -122.3422 319° Northwest 356 410 11,800 -1,260 Descending Oakland Center
02:31PM 37.8961 -122.3978 328° Northwest 320 368 10,200 -2,100 Descending Oakland Center
02:32PM 37.9872 -122.3706 13° North 288 331 7,500 -2,460 Descending Oakland Center
02:33PM 38.0611 -122.3536 10° North 276 318 5,100 -2,340 Descending Oakland Center
02:34PM 38.1328 -122.3433 North 265 305 2,800 -1,800 Descending Oakland Center
02:35PM 38.1956 -122.3258 12° North 244 281 1,500 -840 Descending Oakland Center
02:36PM 38.2397 -122.3028 22° Northeast 198 228 1,200 -480 Descending Oakland Center
02:37PM 38.2519 -122.2717 63° Northeast 156 180 600 -600 Descending Oakland Center